Time;durP1;ratioP1;P1;durP2;ratioP2;P2;SDS_P1;SDS_P2;PMS_P1;PMS_P2;Temp;Humidity;BMP_temperature;BMP_pressure;BME280_temperature;BME280_humidity;BME280_pressure;Samples;Min_cycle;Max_cycle;Signal;HPM_P1;HPM_P2
2021/12/24 00:01:06;;;;;;;4.72;4.20;;;9.80;59.50;;;;;;5020543;28;20309;-82
2021/12/24 00:03:33;;;;;;;8.70;4.60;;;9.70;59.40;;;;;;5021262;28;20283;-81
2021/12/24 00:06:02;;;;;;;6.93;4.90;;;9.70;59.40;;;;;;5020894;28;20218;-82
2021/12/24 00:08:29;;;;;;;6.05;4.50;;;9.70;59.40;;;;;;5021876;28;20644;-82
2021/12/24 00:11:00;;;;;;;8.50;3.92;;;9.70;59.40;;;;;;5024561;28;20299;-81
2021/12/24 00:13:28;;;;;;;7.47;4.18;;;9.80;59.50;;;;;;5026889;28;20231;-82
2021/12/24 00:16:05;;;;;;;6.45;4.28;;;9.80;59.50;;;;;;5022328;28;20266;-81
2021/12/24 00:18:40;;;;;;;6.28;4.00;;;9.80;59.50;;;;;;5033807;28;20215;-80
2021/12/24 00:35:10;;;;;;;5.53;3.70;;;9.90;58.40;;;;;;5025647;28;20210;-81
2021/12/24 00:37:39;;;;;;;5.47;3.50;;;10.00;57.10;;;;;;5025756;28;20224;-81
2021/12/24 00:40:13;;;;;;;6.43;4.40;;;10.00;56.90;;;;;;5035372;28;20267;-81
2021/12/24 00:42:44;;;;;;;7.28;4.45;;;10.00;56.80;;;;;;5032092;28;20235;-81
2021/12/24 00:45:12;;;;;;;4.63;3.85;;;10.00;56.90;;;;;;5037602;28;20203;-79
2021/12/24 00:47:39;;;;;;;6.18;3.65;;;10.00;56.60;;;;;;5036012;28;20211;-79
2021/12/24 00:50:10;;;;;;;4.70;3.85;;;10.00;56.40;;;;;;5024432;28;20204;-79
2021/12/24 00:52:49;;;;;;;10.38;4.68;;;10.00;55.90;;;;;;5032262;28;20260;-80
2021/12/24 00:55:16;;;;;;;5.90;4.35;;;10.00;55.90;;;;;;5035993;28;20196;-80
2021/12/24 00:57:46;;;;;;;5.63;3.47;;;10.00;55.70;;;;;;5037478;28;20223;-80
2021/12/24 01:00:16;;;;;;;7.05;4.47;;;10.00;55.90;;;;;;5037654;28;20276;-80
2021/12/24 01:02:44;;;;;;;7.60;3.90;;;9.90;57.10;;;;;;5037201;28;20250;-80
2021/12/24 01:05:14;;;;;;;4.55;3.83;;;9.90;56.70;;;;;;5036991;28;20196;-81
2021/12/24 01:07:44;;;;;;;6.45;3.72;;;9.90;56.70;;;;;;5034701;28;20195;-81
2021/12/24 01:10:14;;;;;;;5.60;4.38;;;9.90;56.80;;;;;;5036426;28;20284;-81
2021/12/24 01:12:41;;;;;;;7.22;4.50;;;9.90;56.80;;;;;;5036192;28;20311;-82
2021/12/24 01:15:08;;;;;;;7.47;4.40;;;9.80;56.50;;;;;;5030626;28;20299;-82
2021/12/24 01:17:41;;;;;;;6.60;4.57;;;9.90;56.50;;;;;;5032955;28;20271;-81
2021/12/24 01:20:18;;;;;;;7.85;4.75;;;9.80;56.30;;;;;;5030599;28;20239;-82
2021/12/24 01:25:36;;;;;;;5.75;5.18;;;9.70;56.50;;;;;;5030645;28;20216;-80
2021/12/24 01:28:29;;;;;;;7.07;4.53;;;9.70;56.40;;;;;;5029519;28;20212;-81
2021/12/24 01:39:19;;;;;;;4.97;4.07;;;9.60;56.70;;;;;;5018051;28;20206;-81
2021/12/24 01:44:31;;;;;;;7.90;4.75;;;9.50;56.70;;;;;;5019358;28;20191;-81
2021/12/24 01:47:02;;;;;;;6.32;4.40;;;9.60;56.60;;;;;;5018371;28;20207;-83
2021/12/24 01:49:29;;;;;;;6.68;4.68;;;9.60;56.60;;;;;;5018362;28;20282;-80
2021/12/24 01:51:57;;;;;;;5.82;4.57;;;9.60;56.40;;;;;;5018471;28;20256;-82
2021/12/24 01:54:26;;;;;;;7.15;5.18;;;9.60;56.60;;;;;;5017960;28;20215;-82
2021/12/24 01:56:53;;;;;;;5.47;4.22;;;9.60;57.40;;;;;;5017424;28;20207;-82
2021/12/24 01:59:21;;;;;;;6.80;4.82;;;9.50;56.70;;;;;;5017768;28;20386;-81
2021/12/24 02:01:49;;;;;;;6.13;5.15;;;9.60;56.70;;;;;;5030492;28;20259;-81
2021/12/24 02:04:16;;;;;;;6.90;5.32;;;9.60;56.80;;;;;;5018077;28;20222;-81
2021/12/24 02:06:43;;;;;;;6.85;4.55;;;9.60;56.80;;;;;;5017782;28;20401;-81
2021/12/24 02:09:11;;;;;;;5.68;4.38;;;9.60;56.80;;;;;;5018682;28;20639;-82
2021/12/24 02:11:41;;;;;;;4.63;4.18;;;9.60;56.80;;;;;;5017574;28;20664;-82
2021/12/24 02:14:10;;;;;;;7.03;4.75;;;9.60;56.90;;;;;;5017899;28;20208;-81
2021/12/24 02:16:50;;;;;;;5.63;4.35;;;9.60;57.10;;;;;;5018270;28;20230;-82
2021/12/24 02:30:41;;;;;;;10.50;4.40;;;9.70;57.20;;;;;;5022172;28;20235;-83
2021/12/24 02:33:08;;;;;;;6.00;3.80;;;9.60;57.30;;;;;;5022849;28;20275;-81
2021/12/24 02:35:35;;;;;;;6.78;4.60;;;9.70;57.30;;;;;;5023142;28;20213;-82
2021/12/24 02:38:05;;;;;;;9.13;4.65;;;9.70;57.10;;;;;;5024048;28;20230;-82
2021/12/24 02:40:33;;;;;;;5.85;4.32;;;9.70;57.10;;;;;;5022489;28;20297;-82
2021/12/24 02:43:00;;;;;;;6.72;4.55;;;9.70;57.00;;;;;;5024689;28;20243;-80
2021/12/24 02:45:31;;;;;;;7.72;4.88;;;9.70;57.10;;;;;;5027156;28;20219;-82
2021/12/24 02:56:13;;;;;;;5.25;4.32;;;9.50;57.80;;;;;;5025989;28;20206;-82
2021/12/24 02:58:42;;;;;;;5.40;4.30;;;9.50;57.80;;;;;;5032423;28;20200;-83
2021/12/24 03:01:10;;;;;;;5.18;4.10;;;9.50;58.00;;;;;;5035211;28;20220;-83
2021/12/24 03:03:37;;;;;;;6.70;4.32;;;9.50;58.40;;;;;;5035393;28;20220;-83
2021/12/24 03:06:06;;;;;;;5.50;4.50;;;9.40;58.40;;;;;;5035356;28;20255;-83
2021/12/24 03:08:35;;;;;;;4.50;4.05;;;9.40;58.50;;;;;;5022531;28;20223;-82
2021/12/24 03:11:01;;;;;;;5.75;4.22;;;9.40;58.80;;;;;;5021738;28;20310;-80
2021/12/24 03:13:29;;;;;;;5.13;4.32;;;9.40;58.90;;;;;;5021713;28;20207;-81
2021/12/24 03:15:58;;;;;;;6.07;4.30;;;9.40;59.10;;;;;;5020692;28;20716;-81
2021/12/24 03:18:30;;;;;;;6.53;4.57;;;9.40;59.60;;;;;;5023028;28;20216;-81
2021/12/24 03:21:05;;;;;;;5.60;4.00;;;9.40;59.20;;;;;;5022390;28;20286;-80
2021/12/24 03:23:40;;;;;;;6.10;4.43;;;9.40;59.00;;;;;;5020870;28;20667;-81
2021/12/24 03:26:10;;;;;;;5.57;4.50;;;9.40;59.10;;;;;;5024009;28;20222;-81
2021/12/24 03:28:37;;;;;;;5.13;4.65;;;9.30;59.10;;;;;;5027551;28;20511;-80
2021/12/24 03:31:06;;;;;;;7.43;5.00;;;9.30;59.10;;;;;;5024665;28;20410;-81
2021/12/24 03:33:34;;;;;;;5.63;4.63;;;9.30;59.10;;;;;;5021130;28;20223;-82
2021/12/24 03:36:02;;;;;;;5.60;4.05;;;9.30;59.10;;;;;;5017036;28;20212;-81
2021/12/24 03:38:29;;;;;;;6.00;5.15;;;9.30;59.10;;;;;;5016172;28;20231;-81
2021/12/24 03:40:56;;;;;;;5.72;5.03;;;9.20;59.00;;;;;;5014777;28;20745;-82
2021/12/24 03:43:24;;;;;;;7.05;4.65;;;9.20;60.10;;;;;;5016042;28;20231;-82
2021/12/24 03:45:59;;;;;;;6.32;4.65;;;9.10;60.90;;;;;;5015141;28;20272;-81
2021/12/24 03:48:39;;;;;;;5.43;4.25;;;9.10;61.20;;;;;;5014961;28;20547;-81
2021/12/24 03:51:23;;;;;;;5.90;4.85;;;9.10;60.80;;;;;;5022948;28;20298;-82
2021/12/24 03:56:37;;;;;;;5.45;4.95;;;9.10;61.20;;;;;;5025399;28;20234;-82
2021/12/24 03:59:06;;;;;;;7.63;5.00;;;9.10;61.50;;;;;;5027016;28;20231;-81
2021/12/24 04:01:34;;;;;;;7.45;5.10;;;9.10;61.50;;;;;;5022345;28;20232;-81
2021/12/24 04:04:01;;;;;;;4.55;4.05;;;9.10;61.50;;;;;;5022149;28;20228;-82
2021/12/24 04:06:28;;;;;;;6.10;4.45;;;9.10;62.40;;;;;;5022828;28;20207;-81
2021/12/24 04:08:55;;;;;;;6.95;4.90;;;9.00;64.20;;;;;;5022760;28;20599;-81
2021/12/24 04:11:22;;;;;;;6.00;5.22;;;8.90;66.60;;;;;;5021905;28;20307;-81
2021/12/24 04:13:49;;;;;;;5.93;4.82;;;8.80;67.50;;;;;;5022405;28;20273;-80
2021/12/24 04:16:17;;;;;;;7.60;4.90;;;8.70;68.30;;;;;;5031286;28;20216;-80
2021/12/24 04:18:52;;;;;;;6.78;5.15;;;8.70;68.60;;;;;;5032185;28;20204;-80
2021/12/24 04:26:48;;;;;;;8.77;4.55;;;8.80;67.80;;;;;;5024320;28;20618;-82
2021/12/24 04:29:15;;;;;;;6.93;4.55;;;8.80;67.50;;;;;;5028071;28;20219;-82
2021/12/24 04:31:46;;;;;;;5.30;4.60;;;8.90;67.60;;;;;;5020557;28;20298;-80
2021/12/24 04:37:34;;;;;;;5.30;4.18;;;8.80;67.50;;;;;;5021952;28;20271;-81
2021/12/24 04:50:53;;;;;;;6.38;4.75;;;8.90;67.60;;;;;;5023546;28;20227;-82
2021/12/24 05:02:11;;;;;;;5.45;4.40;;;9.00;64.30;;;;;;5021225;28;20230;-81
2021/12/24 05:04:48;;;;;;;5.85;5.07;;;9.00;64.40;;;;;;5023135;28;20591;-82
2021/12/24 05:07:35;;;;;;;6.55;4.50;;;8.90;64.30;;;;;;5034472;28;20222;-79
2021/12/24 05:10:02;;;;;;;6.00;4.43;;;9.00;64.20;;;;;;5032071;28;20212;-80
2021/12/24 05:12:29;;;;;;;8.07;4.07;;;9.00;64.80;;;;;;5032705;28;20234;-79
2021/12/24 05:14:58;;;;;;;5.30;4.75;;;9.00;64.60;;;;;;5032928;28;20291;-81
2021/12/24 05:17:31;;;;;;;4.50;4.10;;;9.00;63.90;;;;;;5034923;28;20208;-81
2021/12/24 05:22:43;;;;;;;5.63;4.60;;;9.10;63.40;;;;;;5036538;28;20259;-81
2021/12/24 05:25:10;;;;;;;5.10;4.28;;;9.10;63.40;;;;;;5036637;28;20196;-80
2021/12/24 05:27:38;;;;;;;5.28;4.72;;;9.10;63.40;;;;;;5035711;28;20195;-79
2021/12/24 05:30:07;;;;;;;5.05;3.92;;;9.10;63.40;;;;;;5031962;28;20214;-81
2021/12/24 05:32:35;;;;;;;5.20;4.53;;;9.10;63.40;;;;;;5028364;28;20365;-81
2021/12/24 05:35:04;;;;;;;5.18;4.35;;;9.10;63.40;;;;;;5036683;28;20248;-79
2021/12/24 05:37:31;;;;;;;9.27;4.75;;;9.20;63.40;;;;;;5037060;28;20247;-80
2021/12/24 05:39:58;;;;;;;5.30;4.22;;;9.10;63.80;;;;;;5036976;28;20223;-79
2021/12/24 05:42:27;;;;;;;5.68;4.65;;;9.10;64.50;;;;;;5033584;28;20224;-81
2021/12/24 05:44:57;;;;;;;5.20;4.70;;;9.10;64.90;;;;;;5021503;28;20212;-81
2021/12/24 05:47:24;;;;;;;6.15;4.78;;;9.10;65.60;;;;;;5035011;28;20192;-79
2021/12/24 05:49:51;;;;;;;4.90;4.32;;;9.10;65.00;;;;;;5036555;28;20192;-79
2021/12/24 05:52:19;;;;;;;7.00;4.60;;;9.10;64.90;;;;;;5036335;28;20293;-80
2021/12/24 05:54:46;;;;;;;7.72;4.60;;;9.10;64.90;;;;;;5036434;28;20208;-80
2021/12/24 05:57:13;;;;;;;7.15;4.85;;;9.10;64.90;;;;;;5035884;28;20223;-81
2021/12/24 05:59:40;;;;;;;6.22;4.75;;;9.10;65.00;;;;;;5029989;28;20204;-81
2021/12/24 06:02:08;;;;;;;6.40;4.90;;;9.10;65.10;;;;;;5020301;28;20228;-82
2021/12/24 06:04:35;;;;;;;5.70;4.30;;;9.10;64.90;;;;;;5021539;28;20220;-82
2021/12/24 06:07:02;;;;;;;5.80;4.40;;;9.10;64.90;;;;;;5029603;28;20467;-80
2021/12/24 06:09:30;;;;;;;7.13;5.10;;;9.10;64.80;;;;;;5029093;28;20238;-81
2021/12/24 06:11:57;;;;;;;6.18;4.03;;;9.20;64.70;;;;;;5023696;28;20278;-81
2021/12/24 06:14:24;;;;;;;5.32;4.82;;;9.20;64.60;;;;;;5020740;28;20232;-82
2021/12/24 06:17:01;;;;;;;5.15;4.25;;;9.20;64.50;;;;;;5026237;28;20223;-81
2021/12/24 06:19:28;;;;;;;5.88;4.55;;;9.20;64.60;;;;;;5028181;28;20265;-82
2021/12/24 06:21:55;;;;;;;4.63;4.22;;;9.20;64.50;;;;;;5022218;28;20306;-81
2021/12/24 06:24:23;;;;;;;5.60;4.40;;;9.20;64.50;;;;;;5029677;28;20730;-80
2021/12/24 06:26:51;;;;;;;4.80;4.30;;;9.20;64.50;;;;;;5031102;28;20283;-82
2021/12/24 06:29:20;;;;;;;8.55;4.05;;;9.20;64.50;;;;;;5025283;28;20231;-81
2021/12/24 06:31:48;;;;;;;6.75;4.53;;;9.20;64.30;;;;;;5022023;28;20232;-80
2021/12/24 06:34:15;;;;;;;6.03;4.40;;;9.20;64.30;;;;;;5026789;28;20220;-82
2021/12/24 06:36:44;;;;;;;5.00;4.20;;;9.20;64.50;;;;;;5028218;28;20222;-80
2021/12/24 06:39:14;;;;;;;7.68;4.72;;;9.20;64.50;;;;;;5025252;28;20286;-83
2021/12/24 06:41:41;;;;;;;6.85;4.25;;;9.20;64.30;;;;;;5025714;28;20215;-81
2021/12/24 06:44:11;;;;;;;5.38;3.90;;;9.20;64.10;;;;;;5018512;28;20342;-80
2021/12/24 06:46:38;;;;;;;5.70;4.65;;;9.20;64.10;;;;;;5016336;28;20603;-81
2021/12/24 06:49:05;;;;;;;4.80;4.00;;;9.20;64.20;;;;;;5016087;28;20287;-81
2021/12/24 06:51:32;;;;;;;5.03;4.00;;;9.30;64.20;;;;;;5017265;28;20231;-80
2021/12/24 06:53:59;;;;;;;5.00;3.90;;;9.30;64.10;;;;;;5023443;28;20267;-81
2021/12/24 06:56:26;;;;;;;4.78;4.30;;;9.30;64.10;;;;;;5027553;28;20231;-80
2021/12/24 06:58:53;;;;;;;5.65;4.30;;;9.30;64.60;;;;;;5032216;28;20255;-80
2021/12/24 07:01:22;;;;;;;5.45;4.20;;;9.30;64.00;;;;;;5032273;28;20255;-80
2021/12/24 07:03:49;;;;;;;5.07;4.45;;;9.30;64.20;;;;;;5026010;28;20219;-80
2021/12/24 07:06:16;;;;;;;7.25;3.97;;;9.30;64.10;;;;;;5030372;28;20235;-80
2021/12/24 07:08:43;;;;;;;4.50;3.90;;;9.30;64.30;;;;;;5031536;28;20220;-80
2021/12/24 07:11:10;;;;;;;4.90;4.45;;;9.40;63.90;;;;;;5045824;23;20253;-77
2021/12/24 07:13:37;;;;;;;5.00;4.50;;;9.30;64.00;;;;;;5020512;28;20199;-79
2021/12/24 07:16:04;;;;;;;5.72;4.50;;;9.40;64.00;;;;;;5027579;28;20196;-77
2021/12/24 07:18:32;;;;;;;9.45;4.55;;;9.40;64.10;;;;;;5024753;28;20235;-78
2021/12/24 07:20:59;;;;;;;5.47;4.10;;;9.40;64.00;;;;;;5033563;28;20214;-76
2021/12/24 07:23:26;;;;;;;6.10;3.95;;;9.50;63.70;;;;;;5036235;28;20246;-76
2021/12/24 07:25:53;;;;;;;4.93;3.90;;;9.40;63.60;;;;;;5036247;28;20211;-76
2021/12/24 07:28:20;;;;;;;4.80;4.30;;;9.40;63.60;;;;;;5039094;28;20219;-77
2021/12/24 07:30:47;;;;;;;5.50;4.28;;;9.50;63.70;;;;;;5039483;28;20214;-78
2021/12/24 07:33:14;;;;;;;7.22;4.38;;;9.50;63.70;;;;;;5038928;28;20222;-77
2021/12/24 07:35:43;;;;;;;6.20;4.45;;;9.50;64.40;;;;;;5039675;28;20211;-77
2021/12/24 07:38:13;;;;;;;4.40;3.92;;;9.50;63.70;;;;;;5039933;28;20207;-74
2021/12/24 07:40:40;;;;;;;6.40;4.30;;;9.40;63.70;;;;;;5033568;28;20232;-79
2021/12/24 07:43:07;;;;;;;6.03;4.57;;;9.50;64.10;;;;;;5037907;28;20222;-77
2021/12/24 07:45:35;;;;;;;6.75;4.15;;;9.40;63.80;;;;;;5039695;28;20219;-77
2021/12/24 07:48:11;;;;;;;5.85;3.85;;;9.40;64.30;;;;;;5040206;28;20271;-80
2021/12/24 07:53:25;;;;;;;6.13;4.68;;;9.40;64.50;;;;;;5038892;28;20186;-76
2021/12/24 07:55:58;;;;;;;6.13;4.13;;;9.40;64.40;;;;;;5022213;28;20266;-76
2021/12/24 07:58:25;;;;;;;5.15;3.67;;;9.40;64.50;;;;;;5031425;28;20220;-76
2021/12/24 08:00:52;;;;;;;5.13;4.45;;;9.40;64.40;;;;;;5034166;28;20262;-77
2021/12/24 08:03:19;;;;;;;5.22;4.03;;;9.40;64.50;;;;;;5039290;28;20259;-76
2021/12/24 08:05:48;;;;;;;7.28;4.20;;;9.40;64.70;;;;;;5039022;28;20444;-77
2021/12/24 08:08:15;;;;;;;3.92;3.63;;;9.40;64.80;;;;;;5038149;28;20188;-76
2021/12/24 08:10:44;;;;;;;10.25;4.55;;;9.40;64.70;;;;;;5038665;28;20220;-75
2021/12/24 08:13:11;;;;;;;5.40;3.80;;;9.50;64.90;;;;;;5036400;28;20269;-79
2021/12/24 08:15:38;;;;;;;4.82;3.92;;;9.50;64.70;;;;;;5036607;28;20204;-77
2021/12/24 08:18:04;;;;;;;6.22;4.47;;;9.50;64.80;;;;;;5025594;28;20298;-79
2021/12/24 08:20:31;;;;;;;7.18;4.15;;;9.40;64.90;;;;;;5021112;28;20239;-75
2021/12/24 08:22:58;;;;;;;6.45;4.40;;;9.40;65.10;;;;;;5027698;28;20215;-76
2021/12/24 08:25:26;;;;;;;4.95;4.30;;;9.40;65.30;;;;;;5027402;28;20248;-79
2021/12/24 08:27:54;;;;;;;6.32;4.10;;;9.50;65.10;;;;;;5028176;28;20204;-77
2021/12/24 08:30:21;;;;;;;6.57;4.55;;;9.50;64.90;;;;;;5033491;28;20287;-78
2021/12/24 08:32:48;;;;;;;5.68;4.38;;;9.50;65.00;;;;;;5034592;28;20200;-77
2021/12/24 08:35:20;;;;;;;5.30;4.50;;;9.50;65.10;;;;;;5030319;28;20214;-77
2021/12/24 08:37:47;;;;;;;4.32;3.80;;;9.50;66.00;;;;;;5030886;28;20222;-77
2021/12/24 08:40:15;;;;;;;5.88;4.20;;;9.50;65.50;;;;;;5035138;28;20223;-77
2021/12/24 08:42:42;;;;;;;6.10;4.70;;;9.50;65.30;;;;;;5034011;28;20212;-77
2021/12/24 08:45:11;;;;;;;6.10;4.28;;;9.50;65.50;;;;;;5034513;28;20231;-78
2021/12/24 08:47:38;;;;;;;4.97;4.15;;;9.50;65.60;;;;;;5034690;28;20218;-77
2021/12/24 08:50:06;;;;;;;6.25;4.35;;;9.50;65.40;;;;;;5032827;28;20215;-77
2021/12/24 08:52:33;;;;;;;4.60;4.20;;;9.50;65.60;;;;;;5032620;28;20212;-77
2021/12/24 08:55:00;;;;;;;7.07;4.82;;;9.50;65.40;;;;;;5032227;28;20232;-77
2021/12/24 08:57:27;;;;;;;5.10;4.60;;;9.50;66.00;;;;;;5034812;28;20212;-77
2021/12/24 08:59:54;;;;;;;5.65;4.10;;;9.50;66.40;;;;;;5022684;28;20222;-78
2021/12/24 09:02:22;;;;;;;5.60;4.28;;;9.50;67.30;;;;;;5018527;28;20318;-77
2021/12/24 09:04:49;;;;;;;4.97;4.30;;;9.40;68.00;;;;;;5018574;28;20654;-77
2021/12/24 09:07:16;;;;;;;5.22;4.63;;;9.30;68.00;;;;;;5018277;28;20575;-78
2021/12/24 09:09:43;;;;;;;4.95;4.45;;;9.30;69.20;;;;;;5019800;28;20239;-77
2021/12/24 09:12:10;;;;;;;4.95;4.30;;;9.30;70.10;;;;;;5017836;28;20243;-78
2021/12/24 09:14:37;;;;;;;8.45;4.75;;;9.30;70.60;;;;;;5020124;28;20211;-76
2021/12/24 09:17:05;;;;;;;5.28;4.25;;;9.30;71.30;;;;;;5019728;28;20218;-77
2021/12/24 09:19:34;;;;;;;6.10;4.80;;;9.20;72.60;;;;;;5019182;28;20666;-77
2021/12/24 09:22:02;;;;;;;7.28;5.05;;;9.10;76.50;;;;;;5017983;28;20232;-76
2021/12/24 09:24:31;;;;;;;7.47;4.70;;;9.00;79.60;;;;;;5018167;28;20281;-78
2021/12/24 09:26:58;;;;;;;7.70;5.68;;;8.90;82.70;;;;;;5018878;28;20260;-77
2021/12/24 09:29:26;;;;;;;7.88;5.30;;;8.80;85.70;;;;;;5018812;28;20234;-79
2021/12/24 09:31:53;;;;;;;6.95;5.57;;;8.70;88.30;;;;;;5018733;28;20222;-78
2021/12/24 09:34:20;;;;;;;7.05;4.80;;;8.70;90.00;;;;;;5017490;28;20343;-78
2021/12/24 09:36:48;;;;;;;7.70;5.63;;;8.70;91.00;;;;;;5017101;28;20303;-78
2021/12/24 09:39:15;;;;;;;10.63;5.50;;;8.60;91.60;;;;;;5017646;28;20210;-77
2021/12/24 09:41:42;;;;;;;6.43;5.53;;;8.60;92.30;;;;;;5018336;28;20683;-77
2021/12/24 09:44:10;;;;;;;9.20;5.95;;;8.60;93.00;;;;;;5018967;28;20251;-77
2021/12/24 09:46:40;;;;;;;6.97;5.55;;;8.50;93.90;;;;;;5026980;28;20311;-79
2021/12/24 09:49:08;;;;;;;7.20;6.18;;;8.50;94.80;;;;;;5027321;28;20215;-80
2021/12/24 09:51:38;;;;;;;8.10;6.00;;;8.50;95.90;;;;;;5022242;28;20295;-77
2021/12/24 09:54:11;;;;;;;8.15;6.05;;;8.40;96.80;;;;;;5018132;28;20204;-77
2021/12/24 09:56:38;;;;;;;7.70;5.70;;;8.40;98.00;;;;;;5018372;28;20227;-77
2021/12/24 09:59:05;;;;;;;8.48;5.75;;;8.40;98.60;;;;;;5021766;28;20274;-78
2021/12/24 10:01:34;;;;;;;7.57;6.30;;;8.40;99.40;;;;;;5034923;28;20235;-76
2021/12/24 10:04:04;;;;;;;7.07;6.32;;;8.40;99.90;;;;;;5019081;28;20238;-78
2021/12/24 10:06:31;;;;;;;10.63;6.75;;;8.30;99.90;;;;;;5018300;28;20254;-78
2021/12/24 10:09:09;;;;;;;8.90;6.70;;;8.30;99.90;;;;;;5016880;28;20212;-79
2021/12/24 10:11:48;;;;;;;11.23;7.00;;;8.30;99.90;;;;;;5015771;28;20239;-79
2021/12/24 10:14:15;;;;;;;9.05;6.93;;;8.30;99.90;;;;;;5015521;28;20207;-79
2021/12/24 10:16:44;;;;;;;7.93;5.78;;;8.30;99.90;;;;;;5016324;28;20212;-77
2021/12/24 10:19:11;;;;;;;8.45;6.30;;;8.30;99.90;;;;;;5015967;28;20234;-78
2021/12/24 10:21:39;;;;;;;7.95;6.75;;;8.20;99.90;;;;;;5015801;28;20228;-78
2021/12/24 10:24:14;;;;;;;9.00;6.93;;;8.30;99.90;;;;;;5016222;28;20228;-79
2021/12/24 10:26:46;;;;;;;9.27;7.40;;;8.20;99.90;;;;;;5017049;28;20278;-79
2021/12/24 10:29:15;;;;;;;9.45;7.10;;;8.30;99.90;;;;;;5016054;28;20273;-78
2021/12/24 10:31:45;;;;;;;8.95;6.65;;;8.30;99.90;;;;;;5017169;28;20246;-79
2021/12/24 10:34:23;;;;;;;9.30;6.40;;;8.20;99.90;;;;;;5016644;28;20207;-77
2021/12/24 10:37:18;;;;;;;11.55;7.00;;;8.30;99.90;;;;;;5017184;28;20798;-80
2021/12/24 10:39:48;;;;;;;10.25;7.57;;;8.30;99.90;;;;;;5026590;28;20298;-78
2021/12/24 10:42:18;;;;;;;8.40;6.45;;;8.30;99.90;;;;;;5022342;28;20232;-77
2021/12/24 10:44:47;;;;;;;10.32;7.32;;;8.30;99.90;;;;;;5015365;28;20705;-77
2021/12/24 10:47:18;;;;;;;9.75;6.70;;;8.30;99.90;;;;;;5017399;28;20258;-77
2021/12/24 10:50:05;;;;;;;7.63;6.65;;;8.30;99.90;;;;;;5021782;28;20207;-77
2021/12/24 10:52:59;;;;;;;10.48;6.50;;;8.30;99.90;;;;;;5021545;28;20230;-77
2021/12/24 10:55:30;;;;;;;10.73;7.57;;;8.30;99.90;;;;;;5023314;28;20294;-78
2021/12/24 10:58:00;;;;;;;9.85;7.15;;;8.30;99.90;;;;;;5033972;28;20195;-75
2021/12/24 11:00:30;;;;;;;9.77;7.45;;;8.30;99.90;;;;;;5032669;28;20216;-77
2021/12/24 11:02:59;;;;;;;8.02;7.22;;;8.30;99.90;;;;;;5023170;28;20574;-78
2021/12/24 11:05:33;;;;;;;8.85;7.95;;;8.40;99.90;;;;;;5020015;28;20231;-76
2021/12/24 11:08:01;;;;;;;7.97;6.97;;;8.30;99.90;;;;;;5025316;28;20235;-78
2021/12/24 11:10:31;;;;;;;9.30;6.50;;;8.40;99.90;;;;;;5030396;28;20216;-76
2021/12/24 11:13:03;;;;;;;8.40;6.85;;;8.40;99.90;;;;;;5020513;28;20229;-77
2021/12/24 11:15:33;;;;;;;8.43;7.22;;;8.40;99.90;;;;;;5019135;28;20266;-78
2021/12/24 11:18:02;;;;;;;10.48;7.03;;;8.40;99.90;;;;;;5025174;28;20207;-78
2021/12/24 11:20:31;;;;;;;9.40;7.13;;;8.50;99.90;;;;;;5027957;28;20235;-77
2021/12/24 11:23:04;;;;;;;10.10;7.05;;;8.50;99.90;;;;;;5030897;28;20583;-78
2021/12/24 11:25:35;;;;;;;9.38;5.97;;;8.50;99.90;;;;;;5027838;28;20212;-77
2021/12/24 11:28:02;;;;;;;9.43;7.20;;;8.50;99.90;;;;;;5029484;28;20654;-78
2021/12/24 11:30:31;;;;;;;7.13;6.43;;;8.50;99.90;;;;;;5031096;28;20224;-77
2021/12/24 11:32:58;;;;;;;7.75;6.30;;;8.50;99.90;;;;;;5030153;28;20208;-79
2021/12/24 11:35:26;;;;;;;10.20;7.38;;;8.60;99.90;;;;;;5027393;28;20232;-76
2021/12/24 11:37:54;;;;;;;7.10;6.40;;;8.60;99.90;;;;;;5029852;28;20219;-80
2021/12/24 11:40:24;;;;;;;9.00;6.43;;;8.60;99.90;;;;;;5030327;28;20300;-76
2021/12/24 11:42:57;;;;;;;7.20;5.65;;;8.60;99.90;;;;;;5034040;28;20296;-76
2021/12/24 11:45:25;;;;;;;13.13;7.22;;;8.60;99.90;;;;;;5035557;28;20228;-77
2021/12/24 11:47:53;;;;;;;9.23;6.70;;;8.70;99.90;;;;;;5033454;28;20243;-76
2021/12/24 11:50:22;;;;;;;8.45;6.40;;;8.70;99.90;;;;;;5035199;28;20251;-78
2021/12/24 11:52:51;;;;;;;7.07;6.00;;;8.70;99.90;;;;;;5027778;28;20237;-79
2021/12/24 11:55:19;;;;;;;6.97;5.97;;;8.70;99.90;;;;;;5026737;28;20263;-76
2021/12/24 11:58:00;;;;;;;8.75;6.53;;;8.70;99.90;;;;;;5024165;28;20417;-77
2021/12/24 12:00:31;;;;;;;7.93;6.00;;;8.70;99.90;;;;;;5015809;28;20282;-78
2021/12/24 12:02:58;;;;;;;8.68;5.85;;;8.70;99.90;;;;;;5016562;28;20303;-78
2021/12/24 12:05:32;;;;;;;6.15;5.55;;;8.70;99.90;;;;;;5015393;28;20247;-76
2021/12/24 12:08:40;;;;;;;8.68;6.07;;;8.70;99.90;;;;;;5015453;28;20657;-78
2021/12/24 12:11:21;;;;;;;6.60;5.95;;;8.80;99.90;;;;;;4954251;28;20250;-77
2021/12/24 12:13:52;;;;;;;7.05;5.70;;;8.70;99.90;;;;;;4956505;28;20277;-78
2021/12/24 12:16:21;;;;;;;7.18;5.00;;;8.70;99.90;;;;;;4958793;29;20654;-78
2021/12/24 12:19:02;;;;;;;6.57;5.43;;;8.80;99.90;;;;;;4958440;29;20237;-78
2021/12/24 12:21:40;;;;;;;5.85;5.10;;;8.80;99.90;;;;;;4957987;28;20237;-78
2021/12/24 12:26:59;;;;;;;5.95;4.85;;;8.80;99.90;;;;;;4957762;29;20228;-77
2021/12/24 12:29:30;;;;;;;5.15;4.40;;;8.90;99.90;;;;;;4958736;29;20305;-78
2021/12/24 12:32:04;;;;;;;7.25;5.20;;;8.80;99.90;;;;;;4957434;28;20608;-77
2021/12/24 12:34:51;;;;;;;5.60;4.70;;;8.80;99.90;;;;;;4957950;29;20210;-76
2021/12/24 12:37:21;;;;;;;6.10;5.50;;;8.90;99.90;;;;;;4957674;29;20395;-77
2021/12/24 12:39:49;;;;;;;5.07;4.57;;;8.80;99.90;;;;;;4970028;29;20268;-77
2021/12/24 12:42:17;;;;;;;6.85;5.30;;;8.90;99.90;;;;;;5007875;28;20231;-78
2021/12/24 12:44:48;;;;;;;5.90;5.30;;;8.90;99.90;;;;;;5019404;28;20235;-78
2021/12/24 12:47:17;;;;;;;6.03;5.43;;;8.80;99.90;;;;;;5018982;28;20258;-78
2021/12/24 12:49:46;;;;;;;5.82;5.22;;;8.80;99.90;;;;;;5019613;28;20300;-78
2021/12/24 12:52:24;;;;;;;7.07;4.55;;;8.80;99.90;;;;;;5019744;28;20238;-77
2021/12/24 12:54:56;;;;;;;6.55;5.43;;;8.90;99.90;;;;;;5020536;28;20294;-77
2021/12/24 12:57:29;;;;;;;5.70;4.63;;;8.90;99.90;;;;;;5021472;28;20637;-77
2021/12/24 13:00:21;;;;;;;5.57;4.82;;;8.90;99.90;;;;;;5029411;28;20220;-78
2021/12/24 13:03:09;;;;;;;8.25;5.07;;;8.90;99.90;;;;;;5035724;28;20220;-78
2021/12/24 13:06:01;;;;;;;5.53;4.65;;;8.90;99.90;;;;;;5037466;28;20228;-78
2021/12/24 13:08:30;;;;;;;4.68;4.07;;;9.00;99.90;;;;;;5036305;28;20204;-77
2021/12/24 13:11:00;;;;;;;5.78;5.10;;;9.00;99.90;;;;;;5059590;22;20239;-80
2021/12/24 13:13:27;;;;;;;5.28;4.63;;;9.00;99.90;;;;;;5044410;28;20207;-81
2021/12/24 13:15:59;;;;;;;5.75;4.88;;;9.10;99.90;;;;;;5047891;28;20207;-81
2021/12/24 13:18:30;;;;;;;6.30;5.05;;;9.10;99.90;;;;;;5050000;28;20282;-79
2021/12/24 13:23:42;;;;;;;5.40;4.85;;;9.10;99.90;;;;;;4999678;28;20204;-82
2021/12/24 13:26:17;;;;;;;7.18;5.57;;;9.20;99.90;;;;;;5031440;28;20231;-80
2021/12/24 13:29:01;;;;;;;6.80;5.18;;;9.30;99.90;;;;;;5034624;28;20514;-80
2021/12/24 13:31:32;;;;;;;9.48;5.32;;;9.40;99.90;;;;;;5034263;28;20246;-80
2021/12/24 13:33:59;;;;;;;5.70;5.10;;;9.50;99.90;;;;;;5035074;28;20202;-80
2021/12/24 13:36:28;;;;;;;5.43;4.90;;;9.50;99.90;;;;;;5028779;28;20299;-80
2021/12/24 13:39:10;;;;;;;4.72;4.32;;;9.50;99.90;;;;;;5025804;28;20206;-81
2021/12/24 13:41:38;;;;;;;6.65;4.78;;;9.60;99.90;;;;;;5025283;28;20232;-80
2021/12/24 13:44:05;;;;;;;5.85;5.25;;;9.60;99.90;;;;;;5025355;28;20278;-80
2021/12/24 13:46:37;;;;;;;6.50;4.80;;;9.70;99.90;;;;;;5024967;28;20293;-80
2021/12/24 13:49:21;;;;;;;7.80;4.60;;;9.80;99.90;;;;;;5027489;28;20254;-80
2021/12/24 13:54:37;;;;;;;4.80;4.35;;;9.70;99.90;;;;;;5033662;28;20195;-80
2021/12/24 13:57:07;;;;;;;6.80;5.10;;;9.60;99.90;;;;;;5034857;28;20222;-80
2021/12/24 13:59:35;;;;;;;7.72;5.03;;;9.60;99.90;;;;;;5027654;28;20220;-81
2021/12/24 14:02:09;;;;;;;6.57;4.30;;;9.60;99.90;;;;;;5026511;28;20303;-81
2021/12/24 14:04:36;;;;;;;7.43;5.03;;;9.60;99.90;;;;;;5028149;28;20250;-82
2021/12/24 14:07:04;;;;;;;6.18;4.70;;;9.60;99.90;;;;;;5029513;28;20297;-80
2021/12/24 14:09:33;;;;;;;5.75;4.95;;;9.60;99.90;;;;;;5026216;28;20218;-81
2021/12/24 14:12:02;;;;;;;4.95;4.40;;;9.60;99.90;;;;;;5025467;28;20235;-81
2021/12/24 14:14:41;;;;;;;6.18;5.10;;;9.50;99.90;;;;;;5023708;28;20281;-82
2021/12/24 14:30:41;;;;;;;5.53;4.93;;;9.50;99.90;;;;;;5157115;27;20538;-79
2021/12/24 14:33:09;;;;;;;5.57;4.20;;;9.50;99.90;;;;;;5141493;27;20208;-80
2021/12/24 14:35:44;;;;;;;7.50;5.85;;;9.40;99.90;;;;;;5143263;27;20203;-81
2021/12/24 14:38:17;;;;;;;7.13;5.80;;;9.40;99.90;;;;;;5143770;27;20254;-79
2021/12/24 14:40:46;;;;;;;6.57;5.40;;;9.40;99.90;;;;;;5142989;27;20256;-82
2021/12/24 14:45:42;;;;;;;13.20;5.57;;;9.30;99.90;;;;;;5150287;22;20270;-78
2021/12/24 14:48:15;;;;;;;5.85;5.25;;;9.30;99.90;;;;;;5134173;28;20206;-76
2021/12/24 14:50:47;;;;;;;7.13;5.70;;;9.20;99.90;;;;;;5133627;28;20189;-76
2021/12/24 14:53:18;;;;;;;7.82;5.57;;;9.20;99.90;;;;;;5133290;28;20200;-78
2021/12/24 14:55:47;;;;;;;7.13;6.10;;;9.20;99.90;;;;;;5154444;27;20188;-79
2021/12/24 14:58:17;;;;;;;6.18;5.55;;;9.20;99.90;;;;;;5154722;27;20208;-76